Terminal Aerodrome Forecast
Issued by NWS

Home | Current Version | Previous Version | Text Only | Print | Product List | Glossary On
Versions: 1 2 3 4 5 6 7 8 9 10 11 12 13 14 15 16 17 18 19
000
FTUS41 KALY 271100
TAFPSF
TAF
KPSF 271128Z 2712/2812 18003KT P6SM SCT050 BKN250
      TEMPO 2712/2713 6SM BR BKN040 OVC050
     FM271800 25008KT P6SM VCSH BKN050
     FM272200 28009KT P6SM SCT050 BKN250
     FM280100 30005KT P6SM SCT250
     FM280600 VRB03KT 3/4SM BR SCT002 SCT250=

USA.gov is the U.S. government's official web portal to all federal, state and local government web resources and services.